Time;durP1;ratioP1;P1;durP2;ratioP2;P2;SDS_P1;SDS_P2;PMS_P1;PMS_P2;Temp;Humidity;BMP_temperature;BMP_pressure;BME280_temperature;BME280_humidity;BME280_pressure;Samples;Min_cycle;Max_cycle;Signal;HPM_P1;HPM_P2
2022/09/28 00:01:52;;;;;;;12.77;7.20;;;;;;;8.73;100.00;99506.50;2615137;36;20027;-53
2022/09/28 00:04:23;;;;;;;11.60;7.20;;;;;;;8.64;100.00;99500.25;2615233;31;20042;-52
2022/09/28 00:06:52;;;;;;;11.85;6.55;;;;;;;8.61;100.00;99500.56;2614691;36;20027;-49
2022/09/28 00:09:20;;;;;;;10.32;6.53;;;;;;;8.48;100.00;99497.44;2615223;36;20029;-51
2022/09/28 00:11:48;;;;;;;11.75;7.20;;;;;;;8.53;100.00;99495.16;2615260;36;20035;-50
2022/09/28 00:14:17;;;;;;;10.77;6.97;;;;;;;8.51;100.00;99492.63;2614888;31;20023;-50
2022/09/28 00:16:45;;;;;;;10.53;6.33;;;;;;;8.45;100.00;99492.41;2615337;36;20415;-50
2022/09/28 00:19:15;;;;;;;10.20;6.28;;;;;;;8.44;100.00;99490.69;2615433;36;20559;-52
2022/09/28 00:21:46;;;;;;;11.52;7.18;;;;;;;8.45;100.00;99495.94;2616030;36;20042;-49
2022/09/28 00:24:17;;;;;;;11.07;6.75;;;;;;;8.45;100.00;99492.41;2615328;31;20022;-48
2022/09/28 00:26:48;;;;;;;12.48;7.50;;;;;;;8.30;100.00;99495.59;2615277;36;20536;-50
2022/09/28 00:29:20;;;;;;;11.25;7.15;;;;;;;8.31;100.00;99499.97;2614570;36;20551;-50
2022/09/28 00:31:51;;;;;;;10.82;7.05;;;;;;;8.41;100.00;99498.03;2615217;36;20034;-51
2022/09/28 00:34:19;;;;;;;11.32;6.85;;;;;;;8.24;100.00;99496.22;2616066;36;20042;-50
2022/09/28 00:36:50;;;;;;;11.77;6.53;;;;;;;8.23;100.00;99490.03;2615810;36;20575;-51
2022/09/28 00:39:20;;;;;;;10.65;6.03;;;;;;;8.19;100.00;99491.31;2615262;36;20058;-53
2022/09/28 00:41:48;;;;;;;10.38;7.32;;;;;;;8.23;100.00;99483.84;2614860;36;20034;-49
2022/09/28 00:44:43;;;;;;;10.38;6.45;;;;;;;8.20;100.00;99487.66;2614466;36;20420;-47
2022/09/28 00:47:23;;;;;;;13.27;7.65;;;;;;;8.03;100.00;99489.34;2615278;36;20041;-52
2022/09/28 00:49:55;;;;;;;12.02;6.85;;;;;;;7.94;100.00;99482.22;2614866;36;20038;-50
2022/09/28 00:52:30;;;;;;;12.23;7.20;;;;;;;7.95;100.00;99480.38;2615826;36;20037;-51
2022/09/28 00:55:02;;;;;;;12.52;6.93;;;;;;;7.94;100.00;99482.22;2614767;31;20057;-51
2022/09/28 00:57:32;;;;;;;12.90;6.88;;;;;;;7.91;100.00;99476.34;2614964;36;20034;-51
2022/09/28 01:00:02;;;;;;;10.98;7.00;;;;;;;7.81;100.00;99482.59;2614469;36;20022;-50
2022/09/28 01:02:30;;;;;;;11.73;7.55;;;;;;;7.89;100.00;99479.16;2614882;36;20045;-52
2022/09/28 01:05:00;;;;;;;11.75;7.13;;;;;;;7.87;100.00;99475.81;2614277;36;20042;-50
2022/09/28 01:07:33;;;;;;;12.80;7.75;;;;;;;7.82;100.00;99475.44;2615852;36;20033;-53
2022/09/28 01:10:02;;;;;;;11.23;6.85;;;;;;;7.89;100.00;99471.13;2615357;31;20030;-48
2022/09/28 01:12:30;;;;;;;14.18;8.15;;;;;;;7.89;100.00;99476.47;2616726;36;20452;-49
2022/09/28 01:15:00;;;;;;;16.48;7.35;;;;;;;7.87;100.00;99467.75;2614355;36;20038;-53
2022/09/28 01:17:38;;;;;;;12.95;7.40;;;;;;;8.00;100.00;99467.38;2616507;36;20143;-53
2022/09/28 01:20:35;;;;;;;14.98;7.90;;;;;;;8.07;100.00;99468.47;2614826;36;20057;-49
2022/09/28 01:23:35;;;;;;;14.20;8.15;;;;;;;8.11;100.00;99468.97;2615802;36;20038;-52
2022/09/28 01:26:33;;;;;;;14.20;7.97;;;;;;;8.09;100.00;99468.31;2616614;36;20578;-52
2022/09/28 01:29:07;;;;;;;12.67;7.87;;;;;;;8.22;100.00;99466.06;2614642;36;20038;-51
2022/09/28 01:31:39;;;;;;;19.52;9.30;;;;;;;8.20;100.00;99466.22;2616460;36;20674;-52
2022/09/28 01:34:16;;;;;;;28.10;9.13;;;;;;;8.21;100.00;99462.53;2615215;36;20036;-47
2022/09/28 01:36:50;;;;;;;19.63;9.00;;;;;;;8.24;100.00;99464.06;2613734;36;20729;-50
2022/09/28 01:39:24;;;;;;;14.90;7.65;;;;;;;8.26;100.00;99464.75;2615430;36;20023;-50
2022/09/28 01:41:58;;;;;;;20.08;8.23;;;;;;;8.20;100.00;99468.03;2616097;36;20578;-51
2022/09/28 01:44:31;;;;;;;27.58;9.82;;;;;;;8.20;100.00;99468.03;2614310;36;20034;-50
2022/09/28 01:47:03;;;;;;;17.77;9.15;;;;;;;8.30;100.00;99467.97;2616027;36;20452;-53
2022/09/28 01:49:37;;;;;;;28.17;8.50;;;;;;;8.26;100.00;99464.75;2615522;31;20415;-52
2022/09/28 01:52:12;;;;;;;18.95;9.85;;;;;;;8.32;100.00;99465.94;2614791;36;20031;-52
2022/09/28 01:54:49;;;;;;;19.67;10.10;;;;;;;8.50;100.00;99466.81;2614150;31;20045;-53
2022/09/28 01:57:26;;;;;;;19.50;9.43;;;;;;;8.48;100.00;99460.75;2615182;36;20643;-50
2022/09/28 02:00:03;;;;;;;18.58;9.98;;;;;;;8.47;100.00;99453.72;2614504;36;20038;-52
2022/09/28 02:02:36;;;;;;;20.50;9.85;;;;;;;8.48;100.00;99462.59;2614900;36;20030;-53
2022/09/28 02:05:10;;;;;;;18.33;10.55;;;;;;;8.37;100.00;99461.81;2615872;36;20657;-53
2022/09/28 02:07:42;;;;;;;17.85;10.00;;;;;;;8.36;100.00;99452.09;2615629;36;20034;-54
2022/09/28 02:10:15;;;;;;;17.20;9.40;;;;;;;8.37;100.00;99464.50;2614965;36;20023;-53
2022/09/28 02:12:50;;;;;;;20.92;10.73;;;;;;;8.30;100.00;99459.91;2614773;36;20029;-53
2022/09/28 02:15:23;;;;;;;18.38;10.05;;;;;;;8.31;100.00;99458.94;2614422;36;20059;-49
2022/09/28 02:17:52;;;;;;;23.38;10.65;;;;;;;8.32;100.00;99458.78;2615956;36;20030;-54
2022/09/28 02:20:23;;;;;;;24.75;10.55;;;;;;;8.31;100.00;99475.84;2613771;36;20524;-53
2022/09/28 02:22:55;;;;;;;18.83;9.63;;;;;;;8.33;100.00;99463.16;2616075;36;20231;-53
2022/09/28 02:25:31;;;;;;;18.45;9.88;;;;;;;8.45;100.00;99476.31;2615771;31;20037;-48
2022/09/28 02:28:05;;;;;;;17.73;9.93;;;;;;;8.48;100.00;99468.81;2615822;36;20118;-50
2022/09/28 02:30:35;;;;;;;16.42;8.80;;;;;;;8.49;100.00;99472.31;2614140;36;20046;-51
2022/09/28 02:33:08;;;;;;;15.88;8.98;;;;;;;8.37;100.00;99475.22;2615995;36;20034;-48
2022/09/28 02:35:37;;;;;;;19.25;8.90;;;;;;;8.42;100.00;99470.25;2616442;36;20037;-47
2022/09/28 02:38:05;;;;;;;18.85;8.10;;;;;;;8.29;100.00;99475.16;2616469;36;20030;-51
2022/09/28 02:40:36;;;;;;;14.02;7.80;;;;;;;8.27;100.00;99469.09;2615413;36;20034;-52
2022/09/28 02:43:16;;;;;;;15.13;7.85;;;;;;;8.35;100.00;99471.84;2615195;36;20069;-48
2022/09/28 02:45:58;;;;;;;10.95;6.95;;;;;;;8.17;100.00;99473.72;2616070;36;20093;-49
2022/09/28 02:48:40;;;;;;;17.83;7.72;;;;;;;8.15;100.00;99476.56;2615865;36;20038;-52
2022/09/28 02:51:22;;;;;;;13.07;7.60;;;;;;;8.12;100.00;99476.03;2615939;31;20022;-48
2022/09/28 02:54:20;;;;;;;11.82;6.53;;;;;;;8.22;100.00;99482.97;2616323;36;20041;-52
2022/09/28 02:57:04;;;;;;;11.25;6.88;;;;;;;8.20;100.00;99487.66;2615475;36;20037;-52
2022/09/28 02:59:47;;;;;;;9.25;6.18;;;;;;;8.11;100.00;99483.22;2607968;36;20034;-49
2022/09/28 03:02:25;;;;;;;12.77;7.45;;;;;;;8.01;100.00;99491.34;2615324;31;20568;-49
2022/09/28 03:05:04;;;;;;;12.25;6.25;;;;;;;8.07;100.00;99488.03;2615741;36;20062;-53
2022/09/28 03:07:38;;;;;;;11.35;6.53;;;;;;;8.03;100.00;99485.84;2616256;36;20587;-50
2022/09/28 03:10:14;;;;;;;9.43;6.07;;;;;;;7.98;100.00;99488.97;2615422;31;20440;-51
2022/09/28 03:12:46;;;;;;;10.52;6.40;;;;;;;7.98;100.00;99488.97;2616138;36;20037;-49
2022/09/28 03:15:24;;;;;;;11.75;6.03;;;;;;;8.02;100.00;99487.69;2615662;36;20042;-51
2022/09/28 03:17:52;;;;;;;10.77;5.93;;;;;;;7.94;100.00;99487.59;2616397;36;20030;-53
2022/09/28 03:20:21;;;;;;;10.52;6.53;;;;;;;7.90;100.00;99488.88;2615458;36;20023;-51
2022/09/28 03:22:49;;;;;;;12.93;6.82;;;;;;;7.88;100.00;99490.88;2616724;36;20415;-49
2022/09/28 03:25:17;;;;;;;13.85;6.53;;;;;;;7.88;100.00;99490.88;2616225;36;20511;-53
2022/09/28 03:27:46;;;;;;;8.50;5.80;;;;;;;7.92;100.00;99497.63;2616036;36;20022;-51
2022/09/28 03:30:17;;;;;;;16.02;6.30;;;;;;;7.93;100.00;99493.09;2614833;36;20023;-52
2022/09/28 03:32:46;;;;;;;8.80;5.50;;;;;;;7.87;100.00;99491.88;2617024;36;20555;-52
2022/09/28 03:35:14;;;;;;;9.82;5.80;;;;;;;7.82;100.00;99496.84;2617437;31;20423;-53
2022/09/28 03:37:43;;;;;;;10.75;6.20;;;;;;;7.83;100.00;99499.38;2616176;36;20039;-52
2022/09/28 03:40:11;;;;;;;9.20;5.55;;;;;;;7.81;100.00;99497.84;2614367;36;20034;-55
2022/09/28 03:42:42;;;;;;;8.90;5.65;;;;;;;7.86;100.00;99503.56;2616623;36;20058;-52
2022/09/28 03:45:12;;;;;;;10.13;5.75;;;;;;;7.85;100.00;99513.47;2614277;36;20150;-50
2022/09/28 03:47:46;;;;;;;;;;;;;;;7.89;100.00;99498.78;2616178;36;20108;-51
2022/09/28 03:50:14;;;;;;;9.05;5.60;;;;;;;7.97;100.00;99494.50;2615289;36;19938;-54
2022/09/28 03:52:43;;;;;;;9.57;5.30;;;;;;;7.92;100.00;99507.47;2616349;36;20046;-52
2022/09/28 03:55:12;;;;;;;13.10;6.17;;;;;;;7.97;100.00;99506.03;2616298;36;20046;-53
2022/09/28 03:57:40;;;;;;;12.02;5.95;;;;;;;7.84;100.00;99501.03;2617217;36;20476;-54
2022/09/28 04:00:10;;;;;;;11.02;6.30;;;;;;;7.90;100.00;99491.56;2614093;31;20030;-54
2022/09/28 04:02:39;;;;;;;10.18;5.53;;;;;;;7.88;100.00;99486.38;2615162;36;20031;-56
2022/09/28 04:05:10;;;;;;;11.23;5.90;;;;;;;7.76;100.00;99489.41;2615254;36;20034;-52
2022/09/28 04:07:39;;;;;;;8.73;5.25;;;;;;;7.72;100.00;99487.03;2615545;36;20532;-54
2022/09/28 04:10:08;;;;;;;9.68;5.97;;;;;;;7.60;100.00;99493.59;2616105;36;20425;-52
2022/09/28 04:12:36;;;;;;;;;;;;;;;7.61;100.00;99486.41;2616405;36;20547;-53
2022/09/28 04:15:05;;;;;;;9.57;5.90;;;;;;;7.74;100.00;99488.72;2614835;36;19977;-52
2022/09/28 04:17:33;;;;;;;10.13;6.05;;;;;;;7.60;100.00;99492.78;2615061;36;20110;-54
2022/09/28 04:20:02;;;;;;;8.75;5.20;;;;;;;7.54;100.00;99488.88;2615436;36;20031;-54
2022/09/28 04:22:36;;;;;;;8.43;5.30;;;;;;;7.49;100.00;99489.31;2615941;36;20054;-53
2022/09/28 04:25:04;;;;;;;11.77;5.63;;;;;;;7.33;100.00;99492.63;2616276;36;20038;-54
2022/09/28 04:30:15;;;;;;;10.20;6.40;;;;;;;7.50;100.00;99490.16;2614626;36;20030;-51
2022/09/28 04:32:43;;;;;;;9.77;6.15;;;;;;;7.46;100.00;99486.91;2615322;31;20401;-50
2022/09/28 04:35:13;;;;;;;9.13;5.90;;;;;;;7.33;100.00;99492.63;2615378;36;20022;-52
2022/09/28 04:37:44;;;;;;;9.63;5.95;;;;;;;7.49;100.00;99486.63;2615925;31;20030;-53
2022/09/28 04:40:12;;;;;;;7.93;4.75;;;;;;;7.42;100.00;99484.69;2614308;36;20102;-53
2022/09/28 04:42:41;;;;;;;9.45;5.72;;;;;;;7.37;100.00;99485.13;2615053;36;20536;-53
2022/09/28 04:45:11;;;;;;;8.80;5.28;;;;;;;7.30;100.00;99492.94;2613924;36;20548;-49
2022/09/28 04:47:39;;;;;;;8.20;5.13;;;;;;;7.29;100.00;99501.13;2616291;36;20030;-50
2022/09/28 04:50:08;;;;;;;13.23;5.80;;;;;;;7.28;100.00;99504.78;2614686;36;20037;-53
2022/09/28 04:52:37;;;;;;;;;;;;;;;7.23;100.00;99502.56;2615691;36;20034;-50
2022/09/28 04:55:11;;;;;;;8.07;5.10;;;;;;;7.22;100.00;99506.22;2614163;36;19954;-53
2022/09/28 04:57:42;;;;;;;8.80;5.03;;;;;;;7.28;100.00;99504.78;2616434;36;20022;-49
2022/09/28 05:00:13;;;;;;;8.15;5.03;;;;;;;7.33;100.00;99505.16;2612804;36;20038;-51
2022/09/28 05:02:41;;;;;;;11.15;5.68;;;;;;;7.32;100.00;99507.00;2606502;36;20031;-52
2022/09/28 05:05:10;;;;;;;6.85;4.50;;;;;;;7.35;100.00;99505.88;2611370;36;20035;-53
2022/09/28 05:07:40;;;;;;;10.65;5.25;;;;;;;7.23;100.00;99507.91;2614712;36;20030;-51
2022/09/28 05:10:11;;;;;;;8.45;4.63;;;;;;;7.22;100.00;99506.22;2614436;36;20551;-51
2022/09/28 05:12:40;;;;;;;7.65;4.60;;;;;;;7.17;100.00;99508.50;2614368;36;20026;-53
2022/09/28 05:15:09;;;;;;;7.28;4.78;;;;;;;7.14;100.00;99501.59;2613587;31;20065;-49
2022/09/28 05:17:37;;;;;;;10.32;6.03;;;;;;;7.17;100.00;99508.50;2615595;36;20026;-56
2022/09/28 05:20:07;;;;;;;8.07;4.47;;;;;;;7.23;100.00;99496.34;2614638;36;20064;-52
2022/09/28 05:22:36;;;;;;;7.57;4.55;;;;;;;7.09;100.00;99500.34;2613795;31;20696;-50
2022/09/28 05:25:04;;;;;;;9.30;4.70;;;;;;;7.06;100.00;99489.94;2613946;36;20611;-54
2022/09/28 05:27:35;;;;;;;7.30;4.20;;;;;;;7.00;100.00;99504.75;2613298;36;20737;-53
2022/09/28 05:30:03;;;;;;;5.85;3.85;;;;;;;7.03;100.00;99500.94;2614817;36;20045;-49
2022/09/28 05:32:32;;;;;;;12.48;4.65;;;;;;;6.99;100.00;99506.59;2614363;31;20022;-52
2022/09/28 05:35:03;;;;;;;9.30;3.75;;;;;;;6.97;100.00;99508.56;2611564;36;20499;-54
2022/09/28 05:37:31;;;;;;;6.63;4.18;;;;;;;6.96;100.00;99498.88;2614478;31;20041;-52
2022/09/28 05:39:59;;;;;;;7.75;4.47;;;;;;;6.99;100.00;99506.59;2614564;36;20397;-52
2022/09/28 05:42:28;;;;;;;6.32;4.25;;;;;;;6.98;100.00;99504.91;2616143;36;20038;-50
2022/09/28 05:44:59;;;;;;;9.18;4.15;;;;;;;7.03;100.00;99517.84;2615088;36;20034;-52
2022/09/28 05:47:28;;;;;;;5.43;4.00;;;;;;;6.99;100.00;99517.28;2616237;36;20579;-50
2022/09/28 05:49:57;;;;;;;7.55;4.00;;;;;;;7.06;100.00;99514.84;2614661;31;20023;-49
2022/09/28 05:52:25;;;;;;;6.38;4.55;;;;;;;7.10;100.00;99523.44;2616786;31;20038;-52
2022/09/28 05:54:53;;;;;;;9.95;4.07;;;;;;;6.99;100.00;99511.94;2615404;36;20023;-53
2022/09/28 05:57:22;;;;;;;8.65;5.28;;;;;;;6.90;100.00;99523.50;2615846;36;20062;-53
2022/09/28 05:59:50;;;;;;;7.00;4.40;;;;;;;6.95;100.00;99515.03;2614337;36;20042;-51
2022/09/28 06:02:21;;;;;;;9.98;4.32;;;;;;;6.97;100.00;99519.25;2613446;36;20606;-53
2022/09/28 06:04:50;;;;;;;7.28;4.40;;;;;;;7.07;100.00;99513.03;2614248;31;20034;-54
2022/09/28 06:07:18;;;;;;;5.45;3.70;;;;;;;6.98;100.00;99518.28;2613473;36;20034;-51
2022/09/28 06:09:46;;;;;;;8.07;4.35;;;;;;;6.96;100.00;99514.91;2614980;36;20034;-53
2022/09/28 06:12:15;;;;;;;6.57;4.13;;;;;;;6.96;100.00;99516.72;2616012;36;20046;-51
2022/09/28 06:14:43;;;;;;;6.68;4.35;;;;;;;6.93;100.00;99517.84;2614983;36;20029;-54
2022/09/28 06:17:12;;;;;;;8.57;4.70;;;;;;;6.87;100.00;99512.25;2614524;36;20036;-51
2022/09/28 06:19:43;;;;;;;6.82;4.55;;;;;;;6.94;100.00;99524.91;2612174;36;20045;-54
2022/09/28 06:22:11;;;;;;;9.80;4.47;;;;;;;6.92;100.00;99523.34;2608047;36;20022;-51
2022/09/28 06:24:39;;;;;;;8.48;5.10;;;;;;;7.04;100.00;99524.00;2615537;36;20440;-50
2022/09/28 06:27:11;;;;;;;10.75;4.68;;;;;;;7.04;100.00;99524.00;2615205;36;20419;-49
2022/09/28 06:29:39;;;;;;;8.13;4.93;;;;;;;7.00;100.00;99529.66;2613035;36;20041;-50
2022/09/28 06:32:07;;;;;;;8.57;4.88;;;;;;;7.12;100.00;99534.84;2615815;36;20535;-51
2022/09/28 06:34:36;;;;;;;9.93;4.85;;;;;;;7.21;100.00;99541.97;2616099;36;20163;-51
2022/09/28 06:37:07;;;;;;;8.37;5.07;;;;;;;7.27;100.00;99540.56;2616409;36;20114;-49
2022/09/28 06:39:35;;;;;;;7.00;4.32;;;;;;;7.31;100.00;99540.09;2615526;36;20029;-55
2022/09/28 06:42:04;;;;;;;11.18;4.68;;;;;;;7.43;100.00;99542.59;2617076;36;20587;-52
2022/09/28 06:44:33;;;;;;;13.80;5.53;;;;;;;7.36;100.00;99545.88;2616924;36;20423;-50
2022/09/28 06:47:02;;;;;;;12.55;5.13;;;;;;;7.47;100.00;99547.50;2616605;31;20037;-50
2022/09/28 06:49:30;;;;;;;12.02;4.55;;;;;;;7.43;100.00;99545.28;2615437;36;20982;-52
2022/09/28 06:51:58;;;;;;;10.90;5.00;;;;;;;7.54;100.00;99539.72;2614165;36;23275;-52
2022/09/28 06:54:29;;;;;;;10.00;5.03;;;;;;;7.59;100.00;99544.63;2614286;31;20035;-53
2022/09/28 06:56:58;;;;;;;10.15;5.53;;;;;;;7.65;100.00;99547.53;2614769;36;20035;-53
2022/09/28 06:59:26;;;;;;;9.27;4.90;;;;;;;7.78;100.00;99544.50;2615836;36;20030;-52
2022/09/28 07:01:55;;;;;;;13.23;5.93;;;;;;;7.86;100.00;99554.47;2615802;36;20046;-55
2022/09/28 07:04:24;;;;;;;10.60;5.50;;;;;;;7.89;100.00;99556.84;2615551;36;20046;-48
2022/09/28 07:06:53;;;;;;;12.27;5.97;;;;;;;7.96;100.00;99543.69;2612086;36;20061;-53
2022/09/28 07:09:21;;;;;;;10.23;6.07;;;;;;;8.09;100.00;99551.38;2613958;36;20042;-49
2022/09/28 07:11:52;;;;;;;12.10;6.43;;;;;;;8.20;100.00;99557.34;2614380;36;20030;-51
2022/09/28 07:14:23;;;;;;;9.68;5.80;;;;;;;8.32;100.00;99557.97;2614570;36;20649;-55
2022/09/28 07:16:51;;;;;;;9.90;5.72;;;;;;;8.32;100.00;99562.47;2615286;36;20026;-51
2022/09/28 07:19:20;;;;;;;11.77;5.80;;;;;;;8.50;100.00;99567.88;2615979;36;20041;-53
2022/09/28 07:21:48;;;;;;;11.65;6.53;;;;;;;8.58;100.00;99575.97;2607737;36;20038;-50
2022/09/28 07:24:17;;;;;;;10.55;5.50;;;;;;;8.71;100.00;99571.03;2615590;36;20038;-54
2022/09/28 07:26:45;;;;;;;8.93;5.80;;;;;;;8.76;100.00;99579.47;2615814;36;20050;-53
2022/09/28 07:29:16;;;;;;;7.78;5.15;;;;;;;8.88;100.00;99584.59;2615771;36;20022;-53
2022/09/28 07:31:44;;;;;;;10.88;6.15;;;;;;;8.99;100.00;99581.63;2608262;36;20042;-52
2022/09/28 07:34:13;;;;;;;8.80;6.13;;;;;;;9.01;100.00;99579.66;2615180;36;20022;-53
2022/09/28 07:36:41;;;;;;;9.57;5.75;;;;;;;9.26;100.00;99577.09;2615327;31;20547;-53
2022/09/28 07:39:11;;;;;;;10.63;5.75;;;;;;;9.41;100.00;99586.25;2616789;31;20030;-54
2022/09/28 07:41:38;;;;;;;;;;;;;;;9.43;100.00;99592.31;2615829;31;20065;-51
2022/09/28 07:44:07;;;;;;;11.32;5.53;;;;;;;9.63;100.00;99589.41;2615106;36;19985;-52
2022/09/28 07:46:38;;;;;;;9.52;5.60;;;;;;;9.68;100.00;99599.66;2615777;36;20045;-51
2022/09/28 07:49:06;;;;;;;10.48;5.85;;;;;;;9.86;100.00;99594.19;2615785;36;20551;-53
2022/09/28 07:51:36;;;;;;;9.73;5.57;;;;;;;9.89;100.00;99596.53;2616112;36;20069;-54
2022/09/28 07:54:05;;;;;;;10.40;6.05;;;;;;;10.07;100.00;99591.03;2614571;36;20544;-51
2022/09/28 07:56:33;;;;;;;8.85;5.25;;;;;;;10.11;100.00;99593.22;2614722;36;20586;-52
2022/09/28 07:59:02;;;;;;;7.90;5.57;;;;;;;10.18;100.00;99599.63;2613972;36;20023;-55
2022/09/28 08:01:30;;;;;;;7.63;5.25;;;;;;;10.42;100.00;99594.50;2617077;36;20026;-52
2022/09/28 08:04:01;;;;;;;9.55;6.00;;;;;;;10.49;100.00;99595.53;2614992;36;20170;-51
2022/09/28 08:06:32;;;;;;;8.20;4.88;;;;;;;10.54;100.00;99598.56;2615958;36;20451;-50
2022/09/28 08:09:00;;;;;;;8.00;4.55;;;;;;;10.67;100.00;99607.00;2612414;36;20539;-51
2022/09/28 08:11:29;;;;;;;5.77;3.70;;;;;;;10.78;100.00;99604.97;2614354;36;20041;-52
2022/09/28 08:13:59;;;;;;;8.87;4.80;;;;;;;10.93;100.00;99608.66;2613952;36;20306;-52
2022/09/28 08:16:28;;;;;;;4.95;3.65;;;;;;;11.11;100.00;99613.84;2615434;36;20534;-54
2022/09/28 08:18:57;;;;;;;8.10;3.90;;;;;;;11.30;100.00;99615.31;2615144;36;20037;-54
2022/09/28 08:24:08;;;;;;;6.97;3.22;;;;;;;11.51;100.00;99622.88;2615530;36;20030;-55
2022/09/28 08:26:37;;;;;;;5.78;3.10;;;;;;;11.55;100.00;99613.41;2616108;36;20049;-55
2022/09/28 08:29:05;;;;;;;3.80;2.67;;;;;;;11.69;100.00;99619.94;2615377;31;20073;-55
2022/09/28 08:31:34;;;;;;;5.10;3.40;;;;;;;11.76;100.00;99620.06;2602599;36;20034;-56
2022/09/28 08:34:03;;;;;;;5.57;2.88;;;;;;;12.06;100.00;99620.34;2616507;36;20045;-51
2022/09/28 08:36:34;;;;;;;5.60;2.47;;;;;;;12.11;100.00;99623.34;2614887;36;20031;-52
2022/09/28 08:39:02;;;;;;;5.30;2.20;;;;;;;12.25;100.00;99625.28;2611463;36;20033;-54
2022/09/28 08:41:41;;;;;;;3.25;2.10;;;;;;;12.39;100.00;99620.13;2613504;36;20587;-51
2022/09/28 08:44:22;;;;;;;7.53;1.92;;;;;;;12.45;100.00;99624.81;2614041;36;20026;-55
2022/09/28 08:46:55;;;;;;;2.85;1.70;;;;;;;12.62;100.00;99618.28;2615956;36;20041;-55
2022/09/28 08:49:29;;;;;;;3.97;1.92;;;;;;;12.80;100.00;99623.38;2615749;36;20037;-52
2022/09/28 08:52:02;;;;;;;3.28;1.80;;;;;;;12.86;100.00;99619.13;2616143;36;20033;-54
2022/09/28 08:54:38;;;;;;;3.20;1.67;;;;;;;13.09;100.00;99619.09;2616214;31;20444;-51
2022/09/28 08:57:12;;;;;;;4.68;2.10;;;;;;;13.12;100.00;99626.00;2616673;36;20041;-51
2022/09/28 08:59:50;;;;;;;2.78;1.80;;;;;;;13.21;100.00;99624.88;2614459;36;20038;-51
2022/09/28 09:02:24;;;;;;;3.28;1.55;;;;;;;13.14;100.00;99634.75;2615269;36;20022;-54
2022/09/28 09:04:53;;;;;;;3.25;1.95;;;;;;;13.04;100.00;99634.16;2616344;31;20034;-51
2022/09/28 09:07:50;;;;;;;3.10;1.02;;;;;;;13.13;100.00;99633.06;2616003;36;20034;-54
2022/09/28 09:10:38;;;;;;;1.70;1.02;;;;;;;13.22;100.00;99641.94;2612942;31;20069;-52
2022/09/28 09:13:25;;;;;;;2.97;1.15;;;;;;;13.36;100.00;99638.44;2614986;36;20046;-56
2022/09/28 09:15:57;;;;;;;2.50;1.17;;;;;;;13.44;100.00;99640.22;2614922;31;20023;-56
2022/09/28 09:18:37;;;;;;;3.42;1.30;;;;;;;13.40;100.00;99637.06;2615489;36;20551;-54
2022/09/28 09:21:15;;;;;;;1.83;1.52;;;;;;;13.50;100.00;99634.09;2614239;36;20034;-54
2022/09/28 09:23:55;;;;;;;1.50;0.93;;;;;;;13.44;100.00;99638.38;2614942;36;20073;-54
2022/09/28 09:26:32;;;;;;;1.83;1.00;;;;;;;13.56;100.00;99641.47;2615382;31;20038;-55
2022/09/28 09:29:18;;;;;;;1.27;0.80;;;;;;;13.60;100.00;99645.47;2615369;36;20026;-55
2022/09/28 09:32:02;;;;;;;1.95;1.55;;;;;;;13.88;100.00;99649.38;2609276;31;20124;-53
2022/09/28 09:34:49;;;;;;;1.48;1.00;;;;;;;13.80;100.00;99644.91;2613652;36;20023;-55
2022/09/28 09:37:29;;;;;;;1.40;1.00;;;;;;;13.74;100.00;99648.38;2606804;36;20039;-53
2022/09/28 09:40:23;;;;;;;1.27;0.90;;;;;;;13.94;100.00;99646.78;2614545;36;20586;-51
2022/09/28 09:43:07;;;;;;;3.03;1.08;;;;;;;13.96;100.00;99652.81;2616647;31;20448;-54
2022/09/28 09:45:54;;;;;;;2.47;0.80;;;;;;;14.20;100.00;99656.25;2615065;36;20023;-54
2022/09/28 09:48:28;;;;;;;1.77;0.80;;;;;;;14.14;100.00;99652.41;2615791;36;20026;-55
2022/09/28 09:51:01;;;;;;;1.40;0.90;;;;;;;14.44;100.00;99646.09;2614670;36;20149;-53
2022/09/28 09:53:38;;;;;;;1.95;1.08;;;;;;;14.37;100.00;99652.28;2613230;36;20046;-53
2022/09/28 09:56:16;;;;;;;1.08;0.73;;;;;;;14.16;100.00;99644.97;2615240;36;20045;-54
2022/09/28 09:58:49;;;;;;;2.27;0.70;;;;;;;14.06;100.00;99648.97;2614932;36;20030;-52
2022/09/28 10:01:21;;;;;;;0.85;0.60;;;;;;;14.14;100.00;99643.47;2614929;36;20406;-53
2022/09/28 10:03:50;;;;;;;0.57;0.57;;;;;;;14.05;100.00;99642.75;2615895;31;20031;-55
2022/09/28 10:06:23;;;;;;;0.43;0.43;;;;;;;13.72;100.00;99648.56;2614142;36;20042;-52
2022/09/28 10:09:00;;;;;;;0.70;0.50;;;;;;;13.69;100.00;99648.91;2613783;31;20034;-55
2022/09/28 10:11:37;;;;;;;2.53;0.55;;;;;;;14.07;100.00;99645.25;2615643;36;20046;-50
2022/09/28 10:14:07;;;;;;;2.58;0.70;;;;;;;13.97;100.00;99641.00;2614992;36;20053;-53
2022/09/28 10:16:37;;;;;;;0.60;0.40;;;;;;;14.37;100.00;99640.63;2614761;36;20031;-54
2022/09/28 10:19:05;;;;;;;0.60;0.60;;;;;;;14.52;100.00;99651.41;2615968;31;20034;-54
2022/09/28 10:21:36;;;;;;;0.40;0.40;;;;;;;14.40;100.00;99655.63;2616069;36;20022;-51
2022/09/28 10:24:06;;;;;;;0.43;0.43;;;;;;;14.14;100.00;99651.59;2615390;36;20563;-55
2022/09/28 10:26:41;;;;;;;1.38;0.80;;;;;;;14.27;100.00;99643.63;2615111;36;20417;-50
2022/09/28 10:29:17;;;;;;;3.00;0.45;;;;;;;14.60;100.00;99645.88;2613321;36;20038;-53
2022/09/28 10:31:47;;;;;;;1.98;0.47;;;;;;;14.60;100.00;99643.16;2615740;36;20031;-56
2022/09/28 10:34:17;;;;;;;1.30;0.40;;;;;;;14.67;100.00;99646.81;2615794;31;20023;-52
2022/09/28 10:36:51;;;;;;;4.85;0.73;;;;;;;15.11;100.00;99641.38;2606617;36;20023;-56
2022/09/28 10:39:30;;;;;;;0.68;0.45;;;;;;;15.39;100.00;99644.94;2606710;36;20030;-53
2022/09/28 10:42:04;;;;;;;2.42;0.40;;;;;;;15.59;100.00;99649.63;2614165;36;20432;-53
2022/09/28 10:44:35;;;;;;;0.30;0.30;;;;;;;15.62;100.00;99643.84;2614527;36;20035;-56
2022/09/28 10:47:06;;;;;;;0.63;0.52;;;;;;;15.77;100.00;99647.25;2615898;36;20122;-51
2022/09/28 10:49:42;;;;;;;0.38;0.38;;;;;;;15.80;100.00;99651.50;2615975;36;20045;-51
2022/09/28 10:52:32;;;;;;;1.17;0.50;;;;;;;15.71;100.00;99642.63;2615469;36;20159;-50
2022/09/28 10:55:01;;;;;;;0.40;0.40;;;;;;;15.48;100.00;99647.50;2615725;31;20027;-56
2022/09/28 10:57:36;;;;;;;0.52;0.50;;;;;;;15.57;100.00;99647.13;2616641;36;20555;-54
2022/09/28 11:00:07;;;;;;;0.40;0.40;;;;;;;15.64;100.00;99641.75;2615441;36;20154;-54
2022/09/28 11:02:38;;;;;;;0.80;0.52;;;;;;;15.67;100.00;99648.66;2616244;31;20023;-51
2022/09/28 11:05:09;;;;;;;1.63;0.50;;;;;;;15.83;100.00;99640.22;2615264;36;20594;-51
2022/09/28 11:07:51;;;;;;;1.65;0.70;;;;;;;16.23;100.00;99645.00;2616199;36;20283;-52
2022/09/28 11:10:23;;;;;;;0.60;0.38;;;;;;;16.03;100.00;99648.50;2613953;36;20054;-50
2022/09/28 11:12:56;;;;;;;0.88;0.50;;;;;;;16.07;100.00;99647.03;2615005;36;20038;-53
2022/09/28 11:15:28;;;;;;;0.88;0.40;;;;;;;16.16;100.00;99646.84;2614553;36;20023;-50
2022/09/28 11:17:57;;;;;;;0.75;0.40;;;;;;;16.36;100.00;99650.50;2615713;36;20547;-53
2022/09/28 11:20:35;;;;;;;0.70;0.43;;;;;;;16.27;100.00;99644.41;2614066;31;20034;-48
2022/09/28 11:23:21;;;;;;;0.77;0.30;;;;;;;15.72;100.00;99646.19;2615063;36;20046;-53
2022/09/28 11:26:01;;;;;;;0.75;0.30;;;;;;;15.56;100.00;99652.75;2616218;36;20038;-50
2022/09/28 11:28:35;;;;;;;2.35;0.45;;;;;;;15.67;100.00;99652.22;2615990;36;20030;-54
2022/09/28 11:31:06;;;;;;;1.27;0.65;;;;;;;15.54;100.00;99647.53;2615122;36;20574;-54
2022/09/28 11:33:37;;;;;;;0.68;0.40;;;;;;;15.40;100.00;99656.63;2615927;36;20134;-54
2022/09/28 11:36:27;;;;;;;0.73;0.57;;;;;;;15.04;100.00;99652.16;2615826;36;20035;-51
2022/09/28 11:39:07;;;;;;;2.05;0.60;;;;;;;15.63;100.00;99656.34;2614801;36;20030;-53
2022/09/28 11:41:51;;;;;;;0.52;0.50;;;;;;;15.82;100.00;99651.28;2614924;36;20034;-53
2022/09/28 11:44:46;;;;;;;0.45;0.30;;;;;;;16.18;100.00;99656.47;2615866;31;20035;-50
2022/09/28 11:47:38;;;;;;;0.52;0.30;;;;;;;16.88;100.00;99647.28;2616391;36;20046;-55
2022/09/28 11:50:17;;;;;;;0.60;0.50;;;;;;;16.26;100.00;99655.47;2606683;36;20034;-51
2022/09/28 11:52:49;;;;;;;;;;;;;;;16.78;100.00;99648.50;2617038;36;20026;-55
2022/09/28 11:55:27;;;;;;;0.65;0.40;;;;;;;16.99;100.00;99660.28;2616398;36;20449;-52
2022/09/28 11:58:05;;;;;;;0.80;0.50;;;;;;;16.46;100.00;99661.81;2615698;36;20046;-57
2022/09/28 12:00:39;;;;;;;0.50;0.47;;;;;;;16.07;100.00;99660.59;2614515;36;20041;-56